createdAt,value
2023-05-06T00:01:15.011Z,81.50
2023-05-06T00:03:42.124Z,81.60
2023-05-06T00:06:09.315Z,82.10
2023-05-06T00:08:36.301Z,81.50
2023-05-06T00:11:03.218Z,81.40
2023-05-06T00:13:30.072Z,81.40
2023-05-06T00:15:56.939Z,81.50
2023-05-06T00:18:23.813Z,81.40
2023-05-06T00:20:50.677Z,82.30
2023-05-06T00:23:17.471Z,81.80
2023-05-06T00:25:44.211Z,82.00
2023-05-06T00:28:10.970Z,81.90
2023-05-06T00:30:37.751Z,82.00
2023-05-06T00:33:04.666Z,82.10
2023-05-06T00:35:31.487Z,82.10
2023-05-06T00:38:06.779Z,81.90
2023-05-06T00:40:33.644Z,81.70
2023-05-06T00:43:00.580Z,82.00
2023-05-06T00:45:27.478Z,81.10
2023-05-06T00:47:55.081Z,80.90
2023-05-06T00:50:22.470Z,81.00
2023-05-06T00:52:49.784Z,81.40
2023-05-06T00:55:16.756Z,81.00
2023-05-06T00:57:43.746Z,80.60
2023-05-06T01:00:11.811Z,80.30
2023-05-06T01:02:47.068Z,80.40
2023-05-06T01:05:16.415Z,79.80
2023-05-06T01:07:48.945Z,79.80
2023-05-06T01:10:25.283Z,79.60
2023-05-06T01:12:55.263Z,79.30
2023-05-06T01:15:42.009Z,79.20
2023-05-06T01:18:11.690Z,80.00
2023-05-06T01:20:41.999Z,78.90
2023-05-06T01:23:13.077Z,78.60
2023-05-06T01:25:40.277Z,78.30
2023-05-06T01:28:10.505Z,78.00
2023-05-06T01:31:00.844Z,78.10
2023-05-06T01:33:51.095Z,77.30
2023-05-06T01:36:45.445Z,77.10
2023-05-06T01:39:25.602Z,77.00
2023-05-06T01:41:55.569Z,76.50
2023-05-06T01:44:23.757Z,76.40
2023-05-06T01:46:52.995Z,76.30
2023-05-06T01:49:22.184Z,76.00
2023-05-06T01:51:50.548Z,75.40
2023-05-06T01:54:17.740Z,75.30
2023-05-06T01:56:44.649Z,75.40
2023-05-06T01:59:11.569Z,75.00
2023-05-06T02:01:39.714Z,74.70
2023-05-06T02:04:07.700Z,74.40
2023-05-06T02:06:35.095Z,74.80
2023-05-06T02:09:01.973Z,74.50
2023-05-06T02:11:28.855Z,74.40
2023-05-06T02:13:55.666Z,74.30
2023-05-06T02:16:22.864Z,74.30
2023-05-06T02:18:49.747Z,74.30
2023-05-06T02:21:16.527Z,74.40
2023-05-06T02:23:43.333Z,74.30
2023-05-06T02:26:10.640Z,74.10
2023-05-06T02:28:37.431Z,74.20
2023-05-06T02:31:04.329Z,74.50
2023-05-06T02:33:31.315Z,74.30
2023-05-06T02:35:58.151Z,74.50
2023-05-06T02:38:25.021Z,74.10
2023-05-06T02:40:51.810Z,74.30
2023-05-06T02:43:18.560Z,74.00
2023-05-06T02:45:45.343Z,74.20
2023-05-06T02:48:12.159Z,74.10
2023-05-06T02:50:38.993Z,74.60
2023-05-06T02:53:05.858Z,74.30
2023-05-06T02:55:32.780Z,74.60
2023-05-06T02:57:59.553Z,74.90
2023-05-06T03:00:26.329Z,74.20
2023-05-06T03:02:53.332Z,74.10
2023-05-06T03:05:21.123Z,74.00
2023-05-06T03:07:48.039Z,74.00
2023-05-06T03:10:14.932Z,74.30
2023-05-06T03:12:41.764Z,74.50
2023-05-06T03:15:09.249Z,74.20
2023-05-06T03:17:36.289Z,74.60
2023-05-06T03:20:03.797Z,74.40
2023-05-06T03:22:30.850Z,74.20
2023-05-06T03:24:57.590Z,74.20
2023-05-06T03:27:24.702Z,74.60
2023-05-06T03:29:51.663Z,74.80
2023-05-06T03:32:18.549Z,75.00
2023-05-06T03:34:45.496Z,75.00
2023-05-06T03:37:12.268Z,75.00
2023-05-06T03:39:39.038Z,75.00
2023-05-06T03:42:07.857Z,75.40
2023-05-06T03:44:36.222Z,75.60
2023-05-06T03:47:03.044Z,75.30
2023-05-06T03:49:29.830Z,75.50
2023-05-06T03:51:57.047Z,75.40
2023-05-06T03:54:24.014Z,76.30
2023-05-06T03:56:50.837Z,75.60
2023-05-06T03:59:17.704Z,75.60
2023-05-06T04:01:44.585Z,75.60
2023-05-06T04:04:11.507Z,75.90
2023-05-06T04:06:38.329Z,76.20
2023-05-06T04:09:06.843Z,76.50
2023-05-06T04:11:35.248Z,76.50
2023-05-06T04:14:02.638Z,76.60
2023-05-06T04:16:29.575Z,77.10
2023-05-06T04:18:57.676Z,76.90
2023-05-06T04:21:24.587Z,77.30
2023-05-06T04:23:51.377Z,77.30
2023-05-06T04:26:18.195Z,77.30
2023-05-06T04:28:45.152Z,77.20
2023-05-06T04:31:12.363Z,77.60
2023-05-06T04:33:39.150Z,77.90
2023-05-06T04:36:06.709Z,78.00
2023-05-06T04:38:34.206Z,78.50
2023-05-06T04:41:01.630Z,78.60
2023-05-06T04:43:28.453Z,78.80
2023-05-06T04:45:55.494Z,78.70
2023-05-06T04:48:23.181Z,78.90
2023-05-06T04:50:51.021Z,80.00
2023-05-06T04:53:17.869Z,79.50
2023-05-06T04:55:44.810Z,79.70
2023-05-06T04:58:11.758Z,79.90
2023-05-06T05:00:38.704Z,80.00
2023-05-06T05:03:05.713Z,80.30
2023-05-06T05:05:36.908Z,80.40
2023-05-06T05:08:03.766Z,80.50
2023-05-06T05:10:30.604Z,80.60
2023-05-06T05:12:57.945Z,80.90
2023-05-06T05:15:24.837Z,80.90
2023-05-06T05:17:51.836Z,81.10
2023-05-06T05:20:18.750Z,81.10
2023-05-06T05:22:45.676Z,81.30
2023-05-06T05:25:13.080Z,81.60
2023-05-06T05:27:42.267Z,81.20
2023-05-06T05:30:09.677Z,81.20
2023-05-06T05:32:36.510Z,80.60
2023-05-06T05:35:03.913Z,80.00
2023-05-06T05:37:31.260Z,79.60
2023-05-06T05:39:58.241Z,79.40
2023-05-06T05:42:24.991Z,79.10
2023-05-06T05:44:51.925Z,79.00
2023-05-06T05:47:18.873Z,78.90
2023-05-06T05:49:45.831Z,78.60
2023-05-06T05:52:12.682Z,78.20
2023-05-06T05:54:39.541Z,78.30
2023-05-06T05:57:06.460Z,78.10
2023-05-06T05:59:33.324Z,78.00
2023-05-06T06:02:00.232Z,77.80
2023-05-06T06:04:27.221Z,77.80
2023-05-06T06:06:57.870Z,77.60
2023-05-06T06:09:25.055Z,77.50
2023-05-06T06:11:51.917Z,77.30
2023-05-06T06:14:18.701Z,76.60
2023-05-06T06:16:45.775Z,76.70
2023-05-06T06:19:14.959Z,76.80
2023-05-06T06:21:41.863Z,77.10
2023-05-06T06:24:08.755Z,76.10
2023-05-06T06:26:35.670Z,76.60
2023-05-06T06:29:02.458Z,76.70
2023-05-06T06:31:29.443Z,76.20
2023-05-06T06:33:56.564Z,76.20
2023-05-06T06:36:23.397Z,76.40
2023-05-06T06:38:50.381Z,76.80
2023-05-06T06:41:17.695Z,77.00
2023-05-06T06:43:44.544Z,76.50
2023-05-06T06:46:11.381Z,76.30
2023-05-06T06:48:38.199Z,76.30
2023-05-06T06:51:05.241Z,76.40
2023-05-06T06:53:32.048Z,75.40
2023-05-06T06:55:58.789Z,75.50
2023-05-06T06:58:25.585Z,75.10
2023-05-06T07:00:52.430Z,74.60
2023-05-06T07:03:19.777Z,74.50
2023-05-06T07:05:46.755Z,75.30
2023-05-06T07:08:13.688Z,74.70
2023-05-06T07:10:41.722Z,74.50
2023-05-06T07:13:09.006Z,74.30
2023-05-06T07:15:35.955Z,75.60
2023-05-06T07:18:02.780Z,74.30
2023-05-06T07:20:29.753Z,74.40
2023-05-06T07:22:56.784Z,74.40
2023-05-06T07:25:23.944Z,73.80
2023-05-06T07:27:50.871Z,73.60
2023-05-06T07:30:21.029Z,73.60
2023-05-06T07:32:49.946Z,73.30
2023-05-06T07:35:16.845Z,72.60
2023-05-06T07:37:46.158Z,72.00
2023-05-06T07:40:13.383Z,71.40
2023-05-06T07:42:43.006Z,71.10
2023-05-06T07:45:10.667Z,70.20
2023-05-06T07:47:37.740Z,70.10
2023-05-06T07:50:06.994Z,69.40
2023-05-06T07:52:33.983Z,69.40
2023-05-06T07:55:00.758Z,69.40
2023-05-06T07:57:27.621Z,68.80
2023-05-06T07:59:54.632Z,69.10
2023-05-06T08:02:21.798Z,67.90
2023-05-06T08:04:50.945Z,67.70
2023-05-06T08:07:18.584Z,67.10
2023-05-06T08:09:45.562Z,66.80
2023-05-06T08:12:12.376Z,67.60
2023-05-06T08:14:39.394Z,67.20
2023-05-06T08:17:06.306Z,68.00
2023-05-06T08:19:33.085Z,67.60
2023-05-06T08:21:59.879Z,66.60
2023-05-06T08:24:27.208Z,66.30
2023-05-06T08:26:54.142Z,65.80
2023-05-06T08:29:20.938Z,65.70
2023-05-06T08:31:47.866Z,64.90
2023-05-06T08:34:18.437Z,65.10
2023-05-06T08:36:45.387Z,65.20
2023-05-06T08:39:12.732Z,65.50
2023-05-06T08:41:40.896Z,65.40
2023-05-06T08:44:08.489Z,65.50
2023-05-06T08:46:35.673Z,65.70
2023-05-06T08:49:03.112Z,65.80
2023-05-06T08:51:31.902Z,66.50
2023-05-06T08:54:02.907Z,65.90
2023-05-06T08:56:33.297Z,66.30
2023-05-06T08:59:01.484Z,65.20
2023-05-06T09:01:29.193Z,65.00
2023-05-06T09:03:58.160Z,65.60
2023-05-06T09:06:25.302Z,66.30
2023-05-06T09:08:52.208Z,65.80
2023-05-06T09:11:23.212Z,65.90
2023-05-06T09:13:51.090Z,66.80
2023-05-06T09:16:29.736Z,65.70
2023-05-06T09:18:57.583Z,65.50
2023-05-06T09:21:32.645Z,65.90
2023-05-06T09:24:00.418Z,67.10
2023-05-06T09:26:31.618Z,67.90
2023-05-06T09:28:59.473Z,68.50
2023-05-06T09:31:28.736Z,67.70
2023-05-06T09:33:57.994Z,69.00
2023-05-06T09:36:28.936Z,69.40
2023-05-06T09:38:56.325Z,68.70
2023-05-06T09:41:25.627Z,68.00
2023-05-06T09:43:54.321Z,69.00
2023-05-06T09:46:22.841Z,69.10
2023-05-06T09:48:52.397Z,70.90
2023-05-06T09:51:20.005Z,70.80
2023-05-06T09:53:47.838Z,72.30
2023-05-06T09:56:16.656Z,72.40
2023-05-06T09:58:44.802Z,70.20
2023-05-06T10:01:19.206Z,69.60
2023-05-06T10:03:53.654Z,68.50
2023-05-06T10:06:23.117Z,68.00
2023-05-06T10:08:51.072Z,67.50
2023-05-06T10:11:20.404Z,67.60
2023-05-06T10:13:48.426Z,66.80
2023-05-06T10:16:15.919Z,66.40
2023-05-06T10:18:44.626Z,65.70
2023-05-06T10:21:17.393Z,65.80
2023-05-06T10:23:49.278Z,65.60
2023-05-06T10:26:18.322Z,65.70
2023-05-06T10:28:49.535Z,65.50
2023-05-06T10:31:17.112Z,66.60
2023-05-06T10:33:47.366Z,65.80
2023-05-06T10:36:22.619Z,66.70
2023-05-06T10:38:56.471Z,64.80
2023-05-06T10:41:26.227Z,63.70
2023-05-06T10:43:56.920Z,63.20
2023-05-06T10:46:26.235Z,63.90
2023-05-06T10:49:08.644Z,64.50
2023-05-06T10:51:36.540Z,64.40
2023-05-06T10:54:18.682Z,64.30
2023-05-06T10:56:51.239Z,64.20
2023-05-06T10:59:24.255Z,64.00
2023-05-06T11:02:01.010Z,62.80
2023-05-06T11:04:30.323Z,62.80
2023-05-06T11:07:09.045Z,63.60
2023-05-06T11:09:55.592Z,64.00
2023-05-06T11:12:23.080Z,63.20
2023-05-06T11:14:53.160Z,63.20
2023-05-06T11:17:31.883Z,63.80
2023-05-06T11:20:18.265Z,63.40
2023-05-06T11:22:45.030Z,63.80
2023-05-06T11:25:12.294Z,63.90
2023-05-06T11:27:40.135Z,63.40
2023-05-06T11:30:14.946Z,64.30
2023-05-06T11:32:43.491Z,64.80
2023-05-06T11:35:11.604Z,63.90
2023-05-06T11:37:38.449Z,65.30
2023-05-06T11:40:20.382Z,65.90
2023-05-06T11:42:59.857Z,66.70
2023-05-06T11:45:27.052Z,65.10
2023-05-06T11:47:54.849Z,65.10
2023-05-06T11:50:24.758Z,64.30
2023-05-06T11:52:52.017Z,64.50
2023-05-06T11:55:34.437Z,64.70
2023-05-06T11:58:39.450Z,66.20
2023-05-06T12:01:16.186Z,65.70
2023-05-06T12:04:06.904Z,67.20
2023-05-06T12:06:53.405Z,67.00
2023-05-06T12:16:58.286Z,69.80
2023-05-06T12:23:12.518Z,69.60
2023-05-06T12:25:40.555Z,69.80
2023-05-06T12:28:17.593Z,70.70
2023-05-06T12:30:44.956Z,71.50
2023-05-06T12:33:13.004Z,71.70
2023-05-06T12:35:41.215Z,73.60
2023-05-06T12:38:14.688Z,73.90
2023-05-06T12:40:42.925Z,74.90
2023-05-06T12:43:10.617Z,74.50
2023-05-06T12:45:40.747Z,74.90
2023-05-06T12:48:08.370Z,75.10
2023-05-06T12:50:42.351Z,75.90
2023-05-06T12:53:11.037Z,76.60
2023-05-06T12:55:39.321Z,78.40
2023-05-06T12:58:06.128Z,79.10
2023-05-06T13:00:33.013Z,81.10
2023-05-06T13:03:00.163Z,81.50
2023-05-06T13:05:27.208Z,81.80
2023-05-06T13:07:54.290Z,82.90
2023-05-06T13:10:21.265Z,83.30
2023-05-06T13:12:48.188Z,84.30
2023-05-06T13:15:16.231Z,85.00
2023-05-06T13:17:43.223Z,85.60
2023-05-06T13:20:11.606Z,86.80
2023-05-06T13:22:53.206Z,87.80
2023-05-06T13:25:22.106Z,88.10
2023-05-06T13:27:49.151Z,89.40
2023-05-06T13:30:17.002Z,90.00
2023-05-06T13:32:45.487Z,90.00
2023-05-06T13:35:12.588Z,90.80
2023-05-06T13:37:39.641Z,91.10
2023-05-06T13:40:07.047Z,91.70
2023-05-06T13:42:33.862Z,92.20
2023-05-06T13:45:00.691Z,92.90
2023-05-06T13:47:27.577Z,93.20
2023-05-06T13:49:57.145Z,93.10
2023-05-06T13:52:24.004Z,93.30
2023-05-06T13:54:50.822Z,93.60
2023-05-06T13:57:19.024Z,93.90
2023-05-06T13:59:45.854Z,93.60
2023-05-06T14:02:13.463Z,93.70
2023-05-06T14:04:40.587Z,93.60
2023-05-06T14:07:07.504Z,93.40
2023-05-06T14:09:34.405Z,93.40
2023-05-06T14:12:01.441Z,93.50
2023-05-06T14:14:31.144Z,93.50
2023-05-06T14:16:57.906Z,93.90
2023-05-06T14:19:24.900Z,93.90
2023-05-06T14:21:51.900Z,93.90
2023-05-06T14:24:18.701Z,94.50
2023-05-06T14:26:46.170Z,94.30
2023-05-06T14:29:12.981Z,94.20
2023-05-06T14:31:39.858Z,94.00
2023-05-06T14:34:06.728Z,94.50
2023-05-06T14:36:33.454Z,94.80
2023-05-06T14:39:06.816Z,94.80
2023-05-06T14:41:33.606Z,95.10
2023-05-06T14:44:00.477Z,94.90
2023-05-06T14:46:29.376Z,95.20
2023-05-06T14:48:56.707Z,95.10
2023-05-06T14:51:23.538Z,95.30
2023-05-06T14:53:50.637Z,95.40
2023-05-06T14:56:17.495Z,95.40
2023-05-06T14:58:44.321Z,95.70
2023-05-06T15:01:11.286Z,95.90
2023-05-06T15:03:38.127Z,95.90
2023-05-06T15:06:05.482Z,95.90
2023-05-06T15:08:32.344Z,96.00
2023-05-06T15:10:59.878Z,96.20
2023-05-06T15:13:27.956Z,96.50
2023-05-06T15:15:55.321Z,96.50
2023-05-06T15:18:22.114Z,96.40
2023-05-06T15:20:48.897Z,97.00
2023-05-06T15:23:15.738Z,96.90
2023-05-06T15:25:42.689Z,97.20
2023-05-06T15:28:09.528Z,97.10
2023-05-06T15:30:38.377Z,97.00
2023-05-06T15:33:05.710Z,97.50
2023-05-06T15:35:32.895Z,97.60
2023-05-06T15:38:00.020Z,98.00
2023-05-06T15:40:26.969Z,98.00
2023-05-06T15:42:53.790Z,98.00
2023-05-06T15:45:22.006Z,98.30
2023-05-06T15:47:48.864Z,98.60
2023-05-06T15:50:25.272Z,98.20
2023-05-06T15:52:58.325Z,98.60
2023-05-06T15:55:26.188Z,98.90
2023-05-06T15:57:54.993Z,99.30
2023-05-06T16:00:22.443Z,99.40
2023-05-06T16:02:49.416Z,99.60
2023-05-06T16:05:16.671Z,99.40
2023-05-06T16:07:43.733Z,99.50
2023-05-06T16:10:10.915Z,99.50
2023-05-06T16:12:37.968Z,99.60
2023-05-06T16:15:05.108Z,99.90
2023-05-06T16:17:33.058Z,99.80
2023-05-06T16:19:59.912Z,99.90
2023-05-06T16:22:26.745Z,99.90
2023-05-06T16:24:53.596Z,99.90
2023-05-06T16:27:20.820Z,99.90
2023-05-06T16:29:47.546Z,99.90
2023-05-06T16:32:14.354Z,99.90
2023-05-06T16:34:41.325Z,99.90
2023-05-06T16:37:08.152Z,99.90
2023-05-06T16:39:35.016Z,99.90
2023-05-06T16:42:02.241Z,99.90
2023-05-06T16:44:29.365Z,99.90
2023-05-06T16:46:56.585Z,99.90
2023-05-06T16:49:24.171Z,99.90
2023-05-06T16:51:51.002Z,99.90
2023-05-06T16:54:17.775Z,99.90
2023-05-06T16:56:51.396Z,99.90
2023-05-06T16:59:22.469Z,99.90
2023-05-06T17:01:50.143Z,99.90
2023-05-06T17:04:16.985Z,99.90
2023-05-06T17:06:43.798Z,99.90
2023-05-06T17:09:11.113Z,99.90
2023-05-06T17:11:37.960Z,99.90
2023-05-06T17:14:04.949Z,99.90
2023-05-06T17:16:31.917Z,99.90
2023-05-06T17:18:58.716Z,99.90
2023-05-06T17:21:25.816Z,99.90
2023-05-06T17:23:54.440Z,99.90
2023-05-06T17:26:22.151Z,99.90
2023-05-06T17:28:49.147Z,99.90
2023-05-06T17:31:16.162Z,99.90
2023-05-06T17:33:44.604Z,99.90
2023-05-06T17:36:12.685Z,99.90
2023-05-06T17:38:40.012Z,99.90
2023-05-06T17:41:06.867Z,99.90
2023-05-06T17:43:34.195Z,99.90
2023-05-06T17:46:01.396Z,99.90
2023-05-06T17:48:28.479Z,99.90
2023-05-06T17:51:03.274Z,99.90
2023-05-06T17:53:32.355Z,99.90
2023-05-06T17:55:59.173Z,99.90
2023-05-06T17:58:29.125Z,99.90
2023-05-06T18:00:56.213Z,99.90
2023-05-06T18:03:26.186Z,99.90
2023-05-06T18:05:52.997Z,99.90
2023-05-06T18:08:19.958Z,99.90
2023-05-06T18:10:46.802Z,99.90
2023-05-06T18:13:13.582Z,99.90
2023-05-06T18:15:40.340Z,99.90
2023-05-06T18:18:07.173Z,99.90
2023-05-06T18:20:34.110Z,99.90
2023-05-06T18:23:00.962Z,99.90
2023-05-06T18:25:27.838Z,99.90
2023-05-06T18:27:55.117Z,99.90
2023-05-06T18:30:22.200Z,99.90
2023-05-06T18:32:53.837Z,99.90
2023-05-06T18:35:22.416Z,99.90
2023-05-06T18:37:52.533Z,99.90
2023-05-06T18:40:19.559Z,99.90
2023-05-06T18:42:47.564Z,99.90
2023-05-06T18:45:17.417Z,99.90
2023-05-06T18:47:44.679Z,99.90
2023-05-06T18:50:11.793Z,99.90
2023-05-06T18:52:38.773Z,99.90
2023-05-06T18:55:07.490Z,99.90
2023-05-06T18:57:34.298Z,99.90
2023-05-06T19:00:01.105Z,99.90
2023-05-06T19:02:28.087Z,99.90
2023-05-06T19:04:55.173Z,99.90
2023-05-06T19:07:21.952Z,99.90
2023-05-06T19:09:48.700Z,99.90
2023-05-06T19:12:16.517Z,99.90
2023-05-06T19:14:43.661Z,99.90
2023-05-06T19:17:11.349Z,99.90
2023-05-06T19:19:40.415Z,99.90
2023-05-06T19:22:07.828Z,99.90
2023-05-06T19:24:34.575Z,99.90
2023-05-06T19:27:01.953Z,99.90
2023-05-06T19:29:28.756Z,99.90
2023-05-06T19:31:55.677Z,99.90
2023-05-06T19:34:22.517Z,99.90
2023-05-06T19:36:49.344Z,99.90
2023-05-06T19:39:16.466Z,99.90
2023-05-06T19:41:43.585Z,99.90
2023-05-06T19:44:10.375Z,99.90
2023-05-06T19:46:40.204Z,99.90
2023-05-06T19:49:07.042Z,99.90
2023-05-06T19:51:33.848Z,99.90
2023-05-06T19:54:00.795Z,99.90
2023-05-06T19:56:30.026Z,99.90
2023-05-06T19:58:56.778Z,99.90
2023-05-06T20:01:24.386Z,99.90
2023-05-06T20:03:51.500Z,99.90
2023-05-06T20:06:18.427Z,99.90
2023-05-06T20:08:45.185Z,99.90
2023-05-06T20:11:12.095Z,99.90
2023-05-06T20:13:38.823Z,99.90
2023-05-06T20:16:05.909Z,99.90
2023-05-06T20:18:33.591Z,99.90
2023-05-06T20:21:00.389Z,99.90
2023-05-06T20:23:27.152Z,99.90
2023-05-06T20:25:54.030Z,99.90
2023-05-06T20:28:20.817Z,99.90
2023-05-06T20:30:48.264Z,99.90
2023-05-06T20:33:15.060Z,99.90
2023-05-06T20:35:42.776Z,99.90
2023-05-06T20:38:10.959Z,99.90
2023-05-06T20:40:38.021Z,99.90
2023-05-06T20:43:04.752Z,99.90
2023-05-06T20:45:31.688Z,99.90
2023-05-06T20:47:58.935Z,99.90
2023-05-06T20:50:26.070Z,99.90
2023-05-06T20:52:54.297Z,99.90
2023-05-06T20:55:23.291Z,99.90
2023-05-06T20:57:50.395Z,99.90
2023-05-06T21:00:17.566Z,99.90
2023-05-06T21:02:44.408Z,99.90
2023-05-06T21:05:11.748Z,99.90
2023-05-06T21:07:38.969Z,99.90
2023-05-06T21:10:06.150Z,99.90
2023-05-06T21:12:33.613Z,99.90
2023-05-06T21:15:00.872Z,99.90
2023-05-06T21:17:28.182Z,99.90
2023-05-06T21:19:55.258Z,99.90
2023-05-06T21:22:23.411Z,99.90
2023-05-06T21:24:51.052Z,99.90
2023-05-06T21:27:17.874Z,99.90
2023-05-06T21:29:44.701Z,99.90
2023-05-06T21:32:11.512Z,99.90
2023-05-06T21:34:38.390Z,99.90
2023-05-06T21:37:05.298Z,99.90
2023-05-06T21:39:32.242Z,99.90
2023-05-06T21:41:59.028Z,99.90
2023-05-06T21:44:26.383Z,99.90
2023-05-06T21:46:53.327Z,99.90
2023-05-06T21:49:22.306Z,99.90
2023-05-06T21:51:49.346Z,99.90
2023-05-06T21:54:17.350Z,99.90
2023-05-06T21:56:44.457Z,99.90
2023-05-06T21:59:11.219Z,99.90
2023-05-06T22:01:38.590Z,99.90
2023-05-06T22:04:11.287Z,99.90
2023-05-06T22:06:39.070Z,99.90
2023-05-06T22:09:09.292Z,99.90
2023-05-06T22:11:40.548Z,99.90
2023-05-06T22:14:07.397Z,99.90
2023-05-06T22:16:35.519Z,99.90
2023-05-06T22:19:03.883Z,99.90
2023-05-06T22:21:32.003Z,99.90
2023-05-06T22:23:58.908Z,99.90
2023-05-06T22:26:28.006Z,99.90
2023-05-06T22:28:56.513Z,99.90
2023-05-06T22:31:24.709Z,99.90
2023-05-06T22:33:55.386Z,99.90
2023-05-06T22:36:22.534Z,99.90
2023-05-06T22:38:49.531Z,99.90
2023-05-06T22:41:17.576Z,99.90
2023-05-06T22:43:44.309Z,99.90
2023-05-06T22:46:11.205Z,99.90
2023-05-06T22:48:38.211Z,99.90
2023-05-06T22:51:05.202Z,99.90
2023-05-06T22:53:32.315Z,99.90
2023-05-06T22:55:59.173Z,99.90
2023-05-06T22:58:26.059Z,99.90
2023-05-06T23:00:52.908Z,99.90
2023-05-06T23:03:19.920Z,99.90
2023-05-06T23:05:46.739Z,99.90
2023-05-06T23:08:13.527Z,99.90
2023-05-06T23:10:40.772Z,99.90
2023-05-06T23:13:07.803Z,99.90
2023-05-06T23:15:34.794Z,99.90
2023-05-06T23:18:01.582Z,99.90
2023-05-06T23:20:28.494Z,99.90
2023-05-06T23:22:55.396Z,99.90
2023-05-06T23:25:22.169Z,99.90
2023-05-06T23:27:48.920Z,99.90
2023-05-06T23:30:15.796Z,99.90
2023-05-06T23:32:42.900Z,99.90
2023-05-06T23:35:10.076Z,99.90
2023-05-06T23:37:37.073Z,99.90
2023-05-06T23:40:04.277Z,99.90
2023-05-06T23:42:31.209Z,99.90
2023-05-06T23:45:00.143Z,99.90
2023-05-06T23:47:27.094Z,99.90
2023-05-06T23:49:53.894Z,99.90
2023-05-06T23:52:21.294Z,99.90
2023-05-06T23:54:48.142Z,99.90
2023-05-06T23:57:14.891Z,99.90
2023-05-06T23:59:41.636Z,99.90
